createdAt,value
2023-01-01T18:56:39.997Z,12.40
2023-01-01T18:59:19.052Z,12.40
2023-01-01T19:01:48.130Z,12.40
2023-01-01T19:04:19.694Z,12.40
2023-01-01T19:06:48.541Z,12.30
2023-01-01T19:09:21.780Z,12.30
2023-01-01T19:11:52.327Z,12.30
2023-01-01T19:14:23.073Z,12.30
2023-01-01T19:16:52.980Z,12.30
2023-01-01T19:19:22.456Z,12.30
2023-01-01T19:21:52.478Z,12.30
2023-01-01T19:24:23.191Z,12.30
2023-01-01T19:26:55.705Z,12.30
2023-01-01T19:29:24.856Z,12.30
2023-01-01T19:31:54.399Z,12.20
2023-01-01T19:34:23.551Z,12.20
2023-01-01T19:36:52.420Z,12.10
2023-01-01T19:39:21.162Z,12.10
2023-01-01T19:41:49.797Z,11.90
2023-01-01T19:44:24.730Z,11.80
2023-01-01T19:46:53.998Z,12.30
2023-01-01T19:49:22.588Z,12.30
2023-01-01T19:51:51.237Z,12.10
2023-01-01T19:54:20.416Z,12.50
2023-01-01T19:56:49.703Z,12.40
2023-01-01T19:59:19.743Z,12.30
2023-01-01T20:02:09.775Z,12.10
2023-01-01T20:07:05.987Z,11.90
2023-01-01T20:09:34.760Z,12.40
2023-01-01T20:12:03.569Z,12.40
2023-01-01T20:14:33.807Z,12.40
2023-01-01T20:17:02.655Z,12.00
2023-01-01T20:19:31.660Z,12.20
2023-01-01T20:22:12.232Z,12.50
2023-01-01T20:24:42.031Z,12.10
2023-01-01T20:27:10.878Z,12.40
2023-01-01T20:29:41.242Z,12.10
2023-01-01T20:32:13.033Z,12.50
2023-01-01T20:34:41.988Z,12.10
2023-01-01T20:37:28.236Z,12.00
2023-01-01T20:39:56.955Z,12.30
2023-01-01T20:42:26.734Z,11.90
2023-01-01T20:44:56.706Z,12.20
2023-01-01T20:47:25.663Z,11.80
2023-01-01T20:49:55.174Z,12.20
2023-01-01T20:52:23.784Z,12.20
2023-01-01T20:54:52.671Z,11.60
2023-01-01T20:57:21.507Z,11.80
2023-01-01T20:59:50.053Z,11.80
2023-01-01T21:02:20.120Z,11.60
2023-01-01T21:04:48.814Z,11.40
2023-01-01T21:07:17.724Z,11.10
2023-01-01T21:09:46.950Z,11.40
2023-01-01T21:14:44.555Z,11.30
2023-01-01T21:17:22.520Z,11.40
2023-01-01T21:19:51.618Z,11.10
2023-01-01T21:24:53.961Z,11.20
2023-01-01T21:27:25.772Z,11.00
2023-01-01T21:29:55.616Z,11.10
2023-01-01T21:32:27.165Z,10.80
2023-01-01T21:34:56.606Z,10.80
2023-01-01T21:37:44.642Z,11.20
2023-01-01T21:42:42.192Z,10.70
2023-01-01T21:45:13.711Z,10.70
2023-01-01T21:47:44.510Z,10.60
2023-01-01T21:50:20.504Z,10.60
2023-01-01T21:52:49.215Z,11.10
2023-01-01T21:55:20.124Z,10.90
2023-01-01T21:57:48.832Z,10.80
2023-01-01T22:00:20.249Z,10.80
2023-01-01T22:02:51.003Z,10.90
2023-01-01T22:05:31.097Z,10.90
2023-01-01T22:10:33.186Z,10.70
2023-01-01T22:13:01.851Z,10.80
2023-01-01T22:15:34.538Z,10.70
2023-01-01T22:18:19.297Z,10.60
2023-01-01T22:20:49.458Z,10.50
2023-01-01T22:23:25.324Z,10.30
2023-01-01T22:25:54.053Z,10.30
2023-01-01T22:28:24.012Z,10.10
2023-01-01T22:30:54.554Z,10.30
2023-01-01T22:33:26.665Z,10.20
2023-01-01T22:35:57.325Z,10.30
2023-01-01T22:38:29.419Z,9.90
2023-01-01T23:38:24.713Z,10.60
2023-01-01T23:55:46.850Z,10.20
2023-01-01T23:58:16.828Z,10.60
